sensor_id;sensor_type;location;lat;lon;timestamp;P1;durP1;ratioP1;P2;durP2;ratioP2
40150;SDS011;25866;52.420;10.640;2024-02-16T00:01:20;8.07;;;2.97;;
40150;SDS011;25866;52.420;10.640;2024-02-16T00:03:46;7.88;;;3.00;;
40150;SDS011;25866;52.420;10.640;2024-02-16T00:06:12;8.07;;;2.70;;
40150;SDS011;25866;52.420;10.640;2024-02-16T00:08:37;7.05;;;2.83;;
40150;SDS011;25866;52.420;10.640;2024-02-16T00:11:04;6.75;;;2.78;;
40150;SDS011;25866;52.420;10.640;2024-02-16T00:13:30;7.07;;;2.80;;
40150;SDS011;25866;52.420;10.640;2024-02-16T00:15:57;5.10;;;3.03;;
40150;SDS011;25866;52.420;10.640;2024-02-16T00:18:23;6.30;;;2.80;;
40150;SDS011;25866;52.420;10.640;2024-02-16T00:20:49;4.90;;;2.97;;
40150;SDS011;25866;52.420;10.640;2024-02-16T00:23:15;4.90;;;2.70;;
40150;SDS011;25866;52.420;10.640;2024-02-16T00:25:41;5.13;;;2.58;;
40150;SDS011;25866;52.420;10.640;2024-02-16T00:28:07;3.28;;;2.53;;
40150;SDS011;25866;52.420;10.640;2024-02-16T00:30:34;2.47;;;2.22;;
40150;SDS011;25866;52.420;10.640;2024-02-16T00:32:59;5.18;;;2.60;;
40150;SDS011;25866;52.420;10.640;2024-02-16T00:35:26;5.68;;;2.60;;
40150;SDS011;25866;52.420;10.640;2024-02-16T00:37:52;2.90;;;2.20;;
40150;SDS011;25866;52.420;10.640;2024-02-16T00:40:17;6.13;;;2.55;;
40150;SDS011;25866;52.420;10.640;2024-02-16T00:42:43;4.25;;;2.30;;
40150;SDS011;25866;52.420;10.640;2024-02-16T00:45:09;4.97;;;2.83;;
40150;SDS011;25866;52.420;10.640;2024-02-16T00:47:35;8.65;;;2.88;;
40150;SDS011;25866;52.420;10.640;2024-02-16T00:50:01;7.22;;;2.53;;
40150;SDS011;25866;52.420;10.640;2024-02-16T00:52:29;6.47;;;2.80;;
40150;SDS011;25866;52.420;10.640;2024-02-16T00:54:54;5.55;;;2.33;;
40150;SDS011;25866;52.420;10.640;2024-02-16T00:57:20;4.40;;;2.53;;
40150;SDS011;25866;52.420;10.640;2024-02-16T00:59:46;8.23;;;2.67;;
40150;SDS011;25866;52.420;10.640;2024-02-16T01:02:12;8.95;;;2.67;;
40150;SDS011;25866;52.420;10.640;2024-02-16T01:04:38;3.75;;;2.33;;
40150;SDS011;25866;52.420;10.640;2024-02-16T01:07:04;4.30;;;2.10;;
40150;SDS011;25866;52.420;10.640;2024-02-16T01:09:29;6.65;;;2.42;;
40150;SDS011;25866;52.420;10.640;2024-02-16T01:11:56;5.95;;;2.30;;
40150;SDS011;25866;52.420;10.640;2024-02-16T01:14:22;9.07;;;2.15;;
40150;SDS011;25866;52.420;10.640;2024-02-16T01:16:48;4.82;;;2.00;;
40150;SDS011;25866;52.420;10.640;2024-02-16T01:19:14;4.85;;;2.15;;
40150;SDS011;25866;52.420;10.640;2024-02-16T01:21:39;5.57;;;2.30;;
40150;SDS011;25866;52.420;10.640;2024-02-16T01:24:06;4.60;;;2.20;;
40150;SDS011;25866;52.420;10.640;2024-02-16T01:26:32;3.47;;;2.30;;
40150;SDS011;25866;52.420;10.640;2024-02-16T01:28:58;5.60;;;2.08;;
40150;SDS011;25866;52.420;10.640;2024-02-16T01:31:24;5.13;;;2.00;;
40150;SDS011;25866;52.420;10.640;2024-02-16T01:33:51;6.60;;;2.30;;
40150;SDS011;25866;52.420;10.640;2024-02-16T01:36:18;4.25;;;2.10;;
40150;SDS011;25866;52.420;10.640;2024-02-16T01:38:44;4.93;;;2.05;;
40150;SDS011;25866;52.420;10.640;2024-02-16T01:41:10;5.13;;;2.20;;
40150;SDS011;25866;52.420;10.640;2024-02-16T01:43:36;1.95;;;1.65;;
40150;SDS011;25866;52.420;10.640;2024-02-16T01:46:02;4.43;;;2.13;;
40150;SDS011;25866;52.420;10.640;2024-02-16T01:48:28;4.82;;;2.13;;
40150;SDS011;25866;52.420;10.640;2024-02-16T01:50:54;5.57;;;2.13;;
40150;SDS011;25866;52.420;10.640;2024-02-16T01:53:20;6.25;;;2.58;;
40150;SDS011;25866;52.420;10.640;2024-02-16T01:55:47;9.27;;;2.67;;
40150;SDS011;25866;52.420;10.640;2024-02-16T01:58:14;5.38;;;2.50;;
40150;SDS011;25866;52.420;10.640;2024-02-16T02:00:40;4.32;;;2.65;;
40150;SDS011;25866;52.420;10.640;2024-02-16T02:03:08;4.85;;;2.25;;
40150;SDS011;25866;52.420;10.640;2024-02-16T02:05:43;3.55;;;2.42;;
40150;SDS011;25866;52.420;10.640;2024-02-16T02:08:13;8.70;;;2.65;;
40150;SDS011;25866;52.420;10.640;2024-02-16T02:10:39;5.65;;;2.53;;
40150;SDS011;25866;52.420;10.640;2024-02-16T02:13:04;3.58;;;2.28;;
40150;SDS011;25866;52.420;10.640;2024-02-16T02:15:30;6.35;;;2.53;;
40150;SDS011;25866;52.420;10.640;2024-02-16T02:17:57;5.38;;;2.55;;
40150;SDS011;25866;52.420;10.640;2024-02-16T02:20:24;6.53;;;2.60;;
40150;SDS011;25866;52.420;10.640;2024-02-16T02:22:50;6.50;;;2.53;;
40150;SDS011;25866;52.420;10.640;2024-02-16T02:25:16;4.88;;;2.40;;
40150;SDS011;25866;52.420;10.640;2024-02-16T02:27:42;5.95;;;2.47;;
40150;SDS011;25866;52.420;10.640;2024-02-16T02:30:08;4.13;;;2.30;;
40150;SDS011;25866;52.420;10.640;2024-02-16T02:32:34;6.57;;;2.50;;
40150;SDS011;25866;52.420;10.640;2024-02-16T02:35:01;5.93;;;2.50;;
40150;SDS011;25866;52.420;10.640;2024-02-16T02:37:29;5.35;;;2.45;;
40150;SDS011;25866;52.420;10.640;2024-02-16T02:39:54;3.75;;;2.22;;
40150;SDS011;25866;52.420;10.640;2024-02-16T02:42:22;7.43;;;2.33;;
40150;SDS011;25866;52.420;10.640;2024-02-16T02:44:47;3.25;;;2.10;;
40150;SDS011;25866;52.420;10.640;2024-02-16T02:47:15;5.85;;;2.20;;
40150;SDS011;25866;52.420;10.640;2024-02-16T02:49:42;5.15;;;2.05;;
40150;SDS011;25866;52.420;10.640;2024-02-16T02:52:08;11.52;;;2.72;;
40150;SDS011;25866;52.420;10.640;2024-02-16T02:54:34;5.30;;;2.45;;
40150;SDS011;25866;52.420;10.640;2024-02-16T02:57:01;5.93;;;2.70;;
40150;SDS011;25866;52.420;10.640;2024-02-16T02:59:27;7.05;;;2.53;;
40150;SDS011;25866;52.420;10.640;2024-02-16T03:01:53;4.03;;;2.53;;
40150;SDS011;25866;52.420;10.640;2024-02-16T03:04:18;6.97;;;2.38;;
40150;SDS011;25866;52.420;10.640;2024-02-16T03:06:44;5.28;;;2.65;;
40150;SDS011;25866;52.420;10.640;2024-02-16T03:09:11;3.85;;;2.28;;
40150;SDS011;25866;52.420;10.640;2024-02-16T03:11:38;4.40;;;2.22;;
40150;SDS011;25866;52.420;10.640;2024-02-16T03:14:04;6.55;;;2.42;;
40150;SDS011;25866;52.420;10.640;2024-02-16T03:16:30;8.00;;;2.20;;
40150;SDS011;25866;52.420;10.640;2024-02-16T03:18:57;5.35;;;2.33;;
40150;SDS011;25866;52.420;10.640;2024-02-16T03:21:22;5.30;;;1.90;;
40150;SDS011;25866;52.420;10.640;2024-02-16T03:26:24;5.38;;;2.35;;
40150;SDS011;25866;52.420;10.640;2024-02-16T03:28:49;4.95;;;2.00;;
40150;SDS011;25866;52.420;10.640;2024-02-16T03:31:19;4.50;;;2.50;;
40150;SDS011;25866;52.420;10.640;2024-02-16T03:33:46;4.15;;;2.13;;
40150;SDS011;25866;52.420;10.640;2024-02-16T03:36:13;3.25;;;2.10;;
40150;SDS011;25866;52.420;10.640;2024-02-16T03:38:43;4.85;;;2.03;;
40150;SDS011;25866;52.420;10.640;2024-02-16T03:41:19;7.43;;;2.13;;
40150;SDS011;25866;52.420;10.640;2024-02-16T03:43:46;4.07;;;2.10;;
40150;SDS011;25866;52.420;10.640;2024-02-16T03:46:12;4.85;;;2.22;;
40150;SDS011;25866;52.420;10.640;2024-02-16T03:48:38;7.13;;;2.47;;
40150;SDS011;25866;52.420;10.640;2024-02-16T03:51:06;3.95;;;2.25;;
40150;SDS011;25866;52.420;10.640;2024-02-16T03:53:32;6.68;;;2.25;;
40150;SDS011;25866;52.420;10.640;2024-02-16T03:55:59;5.57;;;2.30;;
40150;SDS011;25866;52.420;10.640;2024-02-16T03:58:25;5.95;;;2.03;;
40150;SDS011;25866;52.420;10.640;2024-02-16T04:00:51;6.28;;;2.55;;
40150;SDS011;25866;52.420;10.640;2024-02-16T04:03:20;4.25;;;2.10;;
40150;SDS011;25866;52.420;10.640;2024-02-16T04:05:46;3.53;;;2.40;;
40150;SDS011;25866;52.420;10.640;2024-02-16T04:08:12;7.57;;;2.40;;
40150;SDS011;25866;52.420;10.640;2024-02-16T04:10:37;4.88;;;2.58;;
40150;SDS011;25866;52.420;10.640;2024-02-16T04:13:03;14.48;;;2.45;;
40150;SDS011;25866;52.420;10.640;2024-02-16T04:15:29;6.15;;;2.47;;
40150;SDS011;25866;52.420;10.640;2024-02-16T04:17:55;14.38;;;2.88;;
40150;SDS011;25866;52.420;10.640;2024-02-16T04:20:21;12.88;;;2.50;;
40150;SDS011;25866;52.420;10.640;2024-02-16T04:22:47;3.65;;;2.08;;
40150;SDS011;25866;52.420;10.640;2024-02-16T04:25:13;4.40;;;2.50;;
40150;SDS011;25866;52.420;10.640;2024-02-16T04:27:38;7.72;;;2.38;;
40150;SDS011;25866;52.420;10.640;2024-02-16T04:30:05;7.88;;;2.30;;
40150;SDS011;25866;52.420;10.640;2024-02-16T04:32:31;9.55;;;2.88;;
40150;SDS011;25866;52.420;10.640;2024-02-16T04:34:58;6.72;;;2.60;;
40150;SDS011;25866;52.420;10.640;2024-02-16T04:37:24;7.43;;;2.60;;
40150;SDS011;25866;52.420;10.640;2024-02-16T04:39:51;8.57;;;2.13;;
40150;SDS011;25866;52.420;10.640;2024-02-16T04:42:17;4.53;;;2.13;;
40150;SDS011;25866;52.420;10.640;2024-02-16T04:44:43;2.72;;;1.88;;
40150;SDS011;25866;52.420;10.640;2024-02-16T04:47:10;4.88;;;1.98;;
40150;SDS011;25866;52.420;10.640;2024-02-16T04:49:36;5.82;;;2.10;;
40150;SDS011;25866;52.420;10.640;2024-02-16T04:52:03;6.13;;;2.25;;
40150;SDS011;25866;52.420;10.640;2024-02-16T04:54:29;4.35;;;2.38;;
40150;SDS011;25866;52.420;10.640;2024-02-16T04:56:55;7.05;;;2.50;;
40150;SDS011;25866;52.420;10.640;2024-02-16T04:59:21;8.50;;;3.03;;
40150;SDS011;25866;52.420;10.640;2024-02-16T05:01:46;5.65;;;2.63;;
40150;SDS011;25866;52.420;10.640;2024-02-16T05:04:14;6.70;;;2.08;;
40150;SDS011;25866;52.420;10.640;2024-02-16T05:06:45;10.38;;;2.83;;
40150;SDS011;25866;52.420;10.640;2024-02-16T05:09:11;7.68;;;2.20;;
40150;SDS011;25866;52.420;10.640;2024-02-16T05:11:42;4.47;;;1.90;;
40150;SDS011;25866;52.420;10.640;2024-02-16T05:14:11;13.13;;;2.35;;
40150;SDS011;25866;52.420;10.640;2024-02-16T05:16:46;6.15;;;1.98;;
40150;SDS011;25866;52.420;10.640;2024-02-16T05:19:12;8.50;;;2.42;;
40150;SDS011;25866;52.420;10.640;2024-02-16T05:21:38;5.75;;;2.40;;
40150;SDS011;25866;52.420;10.640;2024-02-16T05:24:04;6.80;;;2.15;;
40150;SDS011;25866;52.420;10.640;2024-02-16T05:26:30;4.43;;;2.47;;
40150;SDS011;25866;52.420;10.640;2024-02-16T05:28:56;5.13;;;2.03;;
40150;SDS011;25866;52.420;10.640;2024-02-16T05:31:22;3.50;;;1.90;;
40150;SDS011;25866;52.420;10.640;2024-02-16T05:33:48;6.47;;;2.13;;
40150;SDS011;25866;52.420;10.640;2024-02-16T05:36:16;4.90;;;2.28;;
40150;SDS011;25866;52.420;10.640;2024-02-16T05:38:46;6.95;;;2.15;;
40150;SDS011;25866;52.420;10.640;2024-02-16T05:41:12;3.85;;;1.70;;
40150;SDS011;25866;52.420;10.640;2024-02-16T05:43:38;12.02;;;1.95;;
40150;SDS011;25866;52.420;10.640;2024-02-16T05:46:04;4.05;;;1.65;;
40150;SDS011;25866;52.420;10.640;2024-02-16T05:48:33;4.22;;;1.60;;
40150;SDS011;25866;52.420;10.640;2024-02-16T05:51:02;6.47;;;1.77;;
40150;SDS011;25866;52.420;10.640;2024-02-16T05:53:30;9.25;;;2.30;;
40150;SDS011;25866;52.420;10.640;2024-02-16T05:55:57;3.30;;;1.52;;
40150;SDS011;25866;52.420;10.640;2024-02-16T05:58:23;2.83;;;1.80;;
40150;SDS011;25866;52.420;10.640;2024-02-16T06:00:49;5.60;;;1.80;;
40150;SDS011;25866;52.420;10.640;2024-02-16T06:03:15;6.18;;;2.13;;
40150;SDS011;25866;52.420;10.640;2024-02-16T06:05:41;7.47;;;2.13;;
40150;SDS011;25866;52.420;10.640;2024-02-16T06:08:13;6.03;;;2.28;;
40150;SDS011;25866;52.420;10.640;2024-02-16T06:10:40;11.95;;;3.00;;
40150;SDS011;25866;52.420;10.640;2024-02-16T06:13:07;6.45;;;2.00;;
40150;SDS011;25866;52.420;10.640;2024-02-16T06:15:33;3.67;;;1.90;;
40150;SDS011;25866;52.420;10.640;2024-02-16T06:18:01;4.90;;;1.65;;
40150;SDS011;25866;52.420;10.640;2024-02-16T06:20:27;8.45;;;2.00;;
40150;SDS011;25866;52.420;10.640;2024-02-16T06:22:53;3.83;;;1.85;;
40150;SDS011;25866;52.420;10.640;2024-02-16T06:25:19;8.80;;;2.03;;
40150;SDS011;25866;52.420;10.640;2024-02-16T06:27:45;4.07;;;2.05;;
40150;SDS011;25866;52.420;10.640;2024-02-16T06:30:11;4.03;;;1.88;;
40150;SDS011;25866;52.420;10.640;2024-02-16T06:32:41;9.23;;;2.40;;
40150;SDS011;25866;52.420;10.640;2024-02-16T06:35:07;4.50;;;2.03;;
40150;SDS011;25866;52.420;10.640;2024-02-16T06:37:34;5.93;;;1.98;;
40150;SDS011;25866;52.420;10.640;2024-02-16T06:39:59;4.18;;;1.80;;
40150;SDS011;25866;52.420;10.640;2024-02-16T06:42:27;5.03;;;1.70;;
40150;SDS011;25866;52.420;10.640;2024-02-16T06:44:53;3.83;;;2.00;;
40150;SDS011;25866;52.420;10.640;2024-02-16T06:47:18;9.25;;;2.22;;
40150;SDS011;25866;52.420;10.640;2024-02-16T06:49:45;7.03;;;1.80;;
40150;SDS011;25866;52.420;10.640;2024-02-16T06:52:11;4.85;;;1.63;;
40150;SDS011;25866;52.420;10.640;2024-02-16T06:54:37;5.68;;;1.95;;
40150;SDS011;25866;52.420;10.640;2024-02-16T06:57:03;7.32;;;1.80;;
40150;SDS011;25866;52.420;10.640;2024-02-16T06:59:30;1.83;;;1.30;;
40150;SDS011;25866;52.420;10.640;2024-02-16T07:01:56;8.68;;;1.88;;
40150;SDS011;25866;52.420;10.640;2024-02-16T07:04:21;8.07;;;1.70;;
40150;SDS011;25866;52.420;10.640;2024-02-16T07:06:47;3.17;;;1.88;;
40150;SDS011;25866;52.420;10.640;2024-02-16T07:09:13;4.75;;;1.80;;
40150;SDS011;25866;52.420;10.640;2024-02-16T07:11:40;9.32;;;1.90;;
40150;SDS011;25866;52.420;10.640;2024-02-16T07:14:07;7.57;;;1.80;;
40150;SDS011;25866;52.420;10.640;2024-02-16T07:16:33;3.10;;;1.75;;
40150;SDS011;25866;52.420;10.640;2024-02-16T07:18:59;4.15;;;1.63;;
40150;SDS011;25866;52.420;10.640;2024-02-16T07:21:25;3.10;;;1.58;;
40150;SDS011;25866;52.420;10.640;2024-02-16T07:23:52;3.40;;;1.58;;
40150;SDS011;25866;52.420;10.640;2024-02-16T07:26:18;4.82;;;1.73;;
40150;SDS011;25866;52.420;10.640;2024-02-16T07:28:44;3.17;;;1.40;;
40150;SDS011;25866;52.420;10.640;2024-02-16T07:31:10;2.97;;;1.52;;
40150;SDS011;25866;52.420;10.640;2024-02-16T07:33:36;1.88;;;1.25;;
40150;SDS011;25866;52.420;10.640;2024-02-16T07:36:02;2.38;;;1.40;;
40150;SDS011;25866;52.420;10.640;2024-02-16T07:38:29;2.10;;;1.15;;
40150;SDS011;25866;52.420;10.640;2024-02-16T07:40:55;2.08;;;1.67;;
40150;SDS011;25866;52.420;10.640;2024-02-16T07:43:20;5.40;;;1.50;;
40150;SDS011;25866;52.420;10.640;2024-02-16T07:45:49;2.67;;;1.35;;
40150;SDS011;25866;52.420;10.640;2024-02-16T07:48:15;2.95;;;1.40;;
40150;SDS011;25866;52.420;10.640;2024-02-16T07:50:41;2.60;;;1.55;;
40150;SDS011;25866;52.420;10.640;2024-02-16T07:53:07;3.80;;;1.70;;
40150;SDS011;25866;52.420;10.640;2024-02-16T07:55:35;4.93;;;1.65;;
40150;SDS011;25866;52.420;10.640;2024-02-16T07:58:01;6.15;;;1.58;;
40150;SDS011;25866;52.420;10.640;2024-02-16T08:00:26;2.90;;;1.67;;
40150;SDS011;25866;52.420;10.640;2024-02-16T08:02:53;4.30;;;1.38;;
40150;SDS011;25866;52.420;10.640;2024-02-16T08:05:19;4.13;;;1.50;;
40150;SDS011;25866;52.420;10.640;2024-02-16T08:07:45;4.60;;;1.40;;
40150;SDS011;25866;52.420;10.640;2024-02-16T08:10:12;4.22;;;1.60;;
40150;SDS011;25866;52.420;10.640;2024-02-16T08:12:38;4.15;;;1.75;;
40150;SDS011;25866;52.420;10.640;2024-02-16T08:15:04;3.53;;;1.60;;
40150;SDS011;25866;52.420;10.640;2024-02-16T08:17:32;6.00;;;1.40;;
40150;SDS011;25866;52.420;10.640;2024-02-16T08:19:59;4.03;;;1.70;;
40150;SDS011;25866;52.420;10.640;2024-02-16T08:22:25;3.15;;;1.23;;
40150;SDS011;25866;52.420;10.640;2024-02-16T08:24:51;2.95;;;1.60;;
40150;SDS011;25866;52.420;10.640;2024-02-16T08:27:17;3.55;;;1.60;;
40150;SDS011;25866;52.420;10.640;2024-02-16T08:29:43;3.95;;;1.63;;
40150;SDS011;25866;52.420;10.640;2024-02-16T08:32:09;4.95;;;1.95;;
40150;SDS011;25866;52.420;10.640;2024-02-16T08:34:35;3.63;;;1.67;;
40150;SDS011;25866;52.420;10.640;2024-02-16T08:37:05;5.10;;;1.48;;
40150;SDS011;25866;52.420;10.640;2024-02-16T08:39:33;2.28;;;1.40;;
40150;SDS011;25866;52.420;10.640;2024-02-16T08:41:59;5.78;;;1.52;;
40150;SDS011;25866;52.420;10.640;2024-02-16T08:44:25;3.67;;;1.85;;
40150;SDS011;25866;52.420;10.640;2024-02-16T08:46:51;2.35;;;1.20;;
40150;SDS011;25866;52.420;10.640;2024-02-16T08:49:19;3.03;;;1.30;;
40150;SDS011;25866;52.420;10.640;2024-02-16T08:51:46;6.00;;;1.50;;
40150;SDS011;25866;52.420;10.640;2024-02-16T08:54:12;2.88;;;1.50;;
40150;SDS011;25866;52.420;10.640;2024-02-16T08:56:38;3.80;;;1.38;;
40150;SDS011;25866;52.420;10.640;2024-02-16T08:59:04;3.50;;;1.60;;
40150;SDS011;25866;52.420;10.640;2024-02-16T09:01:31;4.00;;;1.60;;
40150;SDS011;25866;52.420;10.640;2024-02-16T09:03:58;5.03;;;1.70;;
40150;SDS011;25866;52.420;10.640;2024-02-16T09:06:23;7.32;;;1.70;;
40150;SDS011;25866;52.420;10.640;2024-02-16T09:08:50;4.38;;;2.13;;
40150;SDS011;25866;52.420;10.640;2024-02-16T09:11:16;4.93;;;1.77;;
40150;SDS011;25866;52.420;10.640;2024-02-16T09:16:30;5.43;;;2.05;;
40150;SDS011;25866;52.420;10.640;2024-02-16T09:18:57;5.72;;;2.25;;
40150;SDS011;25866;52.420;10.640;2024-02-16T09:21:24;5.47;;;2.38;;
40150;SDS011;25866;52.420;10.640;2024-02-16T09:23:52;6.60;;;2.45;;
40150;SDS011;25866;52.420;10.640;2024-02-16T09:26:18;7.45;;;2.58;;
40150;SDS011;25866;52.420;10.640;2024-02-16T09:28:44;6.38;;;2.10;;
40150;SDS011;25866;52.420;10.640;2024-02-16T09:31:14;6.18;;;2.35;;
40150;SDS011;25866;52.420;10.640;2024-02-16T09:33:40;5.00;;;1.73;;
40150;SDS011;25866;52.420;10.640;2024-02-16T09:36:06;5.93;;;2.10;;
40150;SDS011;25866;52.420;10.640;2024-02-16T09:38:32;4.85;;;2.05;;
40150;SDS011;25866;52.420;10.640;2024-02-16T09:40:58;6.15;;;2.30;;
40150;SDS011;25866;52.420;10.640;2024-02-16T09:43:27;5.82;;;2.22;;
40150;SDS011;25866;52.420;10.640;2024-02-16T09:45:58;6.95;;;2.20;;
40150;SDS011;25866;52.420;10.640;2024-02-16T09:48:28;4.20;;;2.25;;
40150;SDS011;25866;52.420;10.640;2024-02-16T09:50:54;5.30;;;1.83;;
40150;SDS011;25866;52.420;10.640;2024-02-16T09:53:22;5.30;;;2.03;;
40150;SDS011;25866;52.420;10.640;2024-02-16T09:55:50;6.28;;;2.33;;
40150;SDS011;25866;52.420;10.640;2024-02-16T09:58:19;6.05;;;1.90;;
40150;SDS011;25866;52.420;10.640;2024-02-16T10:00:53;3.95;;;1.75;;
40150;SDS011;25866;52.420;10.640;2024-02-16T10:03:24;4.97;;;1.60;;
40150;SDS011;25866;52.420;10.640;2024-02-16T10:05:51;4.47;;;1.75;;
40150;SDS011;25866;52.420;10.640;2024-02-16T10:08:18;3.25;;;1.90;;
40150;SDS011;25866;52.420;10.640;2024-02-16T10:10:44;3.88;;;1.80;;
40150;SDS011;25866;52.420;10.640;2024-02-16T10:13:10;4.22;;;2.10;;
40150;SDS011;25866;52.420;10.640;2024-02-16T10:15:36;5.10;;;2.53;;
40150;SDS011;25866;52.420;10.640;2024-02-16T10:18:05;6.47;;;2.13;;
40150;SDS011;25866;52.420;10.640;2024-02-16T10:20:34;6.68;;;2.80;;
40150;SDS011;25866;52.420;10.640;2024-02-16T10:25:30;8.05;;;3.17;;
40150;SDS011;25866;52.420;10.640;2024-02-16T10:27:57;8.55;;;2.90;;
40150;SDS011;25866;52.420;10.640;2024-02-16T10:30:29;6.63;;;3.00;;
40150;SDS011;25866;52.420;10.640;2024-02-16T10:32:58;5.75;;;2.40;;
40150;SDS011;25866;52.420;10.640;2024-02-16T10:35:25;6.65;;;2.63;;
40150;SDS011;25866;52.420;10.640;2024-02-16T10:37:54;7.00;;;2.17;;
40150;SDS011;25866;52.420;10.640;2024-02-16T10:40:22;17.15;;;1.77;;
40150;SDS011;25866;52.420;10.640;2024-02-16T10:42:49;4.80;;;1.67;;
40150;SDS011;25866;52.420;10.640;2024-02-16T10:45:16;2.88;;;1.40;;
40150;SDS011;25866;52.420;10.640;2024-02-16T10:47:44;4.68;;;1.40;;
40150;SDS011;25866;52.420;10.640;2024-02-16T10:50:10;5.55;;;1.73;;
40150;SDS011;25866;52.420;10.640;2024-02-16T10:52:37;4.38;;;1.50;;
40150;SDS011;25866;52.420;10.640;2024-02-16T10:55:06;3.78;;;1.40;;
40150;SDS011;25866;52.420;10.640;2024-02-16T10:57:35;2.90;;;1.50;;
40150;SDS011;25866;52.420;10.640;2024-02-16T11:00:06;4.13;;;1.55;;
40150;SDS011;25866;52.420;10.640;2024-02-16T11:02:52;4.45;;;1.52;;
40150;SDS011;25866;52.420;10.640;2024-02-16T11:05:18;2.28;;;1.58;;
40150;SDS011;25866;52.420;10.640;2024-02-16T11:07:47;4.65;;;1.77;;
40150;SDS011;25866;52.420;10.640;2024-02-16T11:10:13;3.85;;;1.33;;
40150;SDS011;25866;52.420;10.640;2024-02-16T11:12:42;3.20;;;1.70;;
40150;SDS011;25866;52.420;10.640;2024-02-16T11:15:11;3.80;;;1.50;;
40150;SDS011;25866;52.420;10.640;2024-02-16T11:17:38;3.75;;;1.50;;
40150;SDS011;25866;52.420;10.640;2024-02-16T11:20:06;3.45;;;1.58;;
40150;SDS011;25866;52.420;10.640;2024-02-16T11:22:32;3.53;;;1.30;;
40150;SDS011;25866;52.420;10.640;2024-02-16T11:25:04;8.98;;;1.48;;
40150;SDS011;25866;52.420;10.640;2024-02-16T11:27:31;3.33;;;1.45;;
40150;SDS011;25866;52.420;10.640;2024-02-16T11:29:58;3.45;;;1.50;;
40150;SDS011;25866;52.420;10.640;2024-02-16T11:32:25;4.60;;;1.50;;
40150;SDS011;25866;52.420;10.640;2024-02-16T11:34:51;4.50;;;1.33;;
40150;SDS011;25866;52.420;10.640;2024-02-16T11:37:16;2.78;;;1.30;;
40150;SDS011;25866;52.420;10.640;2024-02-16T11:39:42;2.45;;;1.60;;
40150;SDS011;25866;52.420;10.640;2024-02-16T11:42:11;2.88;;;1.55;;
40150;SDS011;25866;52.420;10.640;2024-02-16T11:44:39;3.30;;;1.50;;
40150;SDS011;25866;52.420;10.640;2024-02-16T11:47:18;3.63;;;1.90;;
40150;SDS011;25866;52.420;10.640;2024-02-16T11:50:04;3.95;;;1.30;;
40150;SDS011;25866;52.420;10.640;2024-02-16T11:52:31;3.00;;;1.60;;
40150;SDS011;25866;52.420;10.640;2024-02-16T11:54:57;3.10;;;1.75;;
40150;SDS011;25866;52.420;10.640;2024-02-16T11:57:28;2.55;;;1.40;;
40150;SDS011;25866;52.420;10.640;2024-02-16T11:59:55;2.47;;;1.77;;
40150;SDS011;25866;52.420;10.640;2024-02-16T12:02:23;4.15;;;1.70;;
40150;SDS011;25866;52.420;10.640;2024-02-16T12:04:57;4.10;;;1.50;;
40150;SDS011;25866;52.420;10.640;2024-02-16T12:07:25;3.38;;;1.50;;
40150;SDS011;25866;52.420;10.640;2024-02-16T12:09:57;3.40;;;1.42;;
40150;SDS011;25866;52.420;10.640;2024-02-16T12:12:24;3.15;;;1.80;;
40150;SDS011;25866;52.420;10.640;2024-02-16T12:14:51;4.97;;;1.80;;
40150;SDS011;25866;52.420;10.640;2024-02-16T12:17:18;4.97;;;1.70;;
40150;SDS011;25866;52.420;10.640;2024-02-16T12:19:44;3.88;;;1.77;;
40150;SDS011;25866;52.420;10.640;2024-02-16T12:22:11;3.47;;;1.73;;
40150;SDS011;25866;52.420;10.640;2024-02-16T12:24:42;2.83;;;1.67;;
40150;SDS011;25866;52.420;10.640;2024-02-16T12:27:09;5.28;;;1.60;;
40150;SDS011;25866;52.420;10.640;2024-02-16T12:29:34;6.00;;;1.60;;
40150;SDS011;25866;52.420;10.640;2024-02-16T12:32:00;2.83;;;1.60;;
40150;SDS011;25866;52.420;10.640;2024-02-16T12:34:26;3.38;;;1.48;;
40150;SDS011;25866;52.420;10.640;2024-02-16T12:36:53;4.15;;;1.75;;
40150;SDS011;25866;52.420;10.640;2024-02-16T12:39:18;4.18;;;1.90;;
40150;SDS011;25866;52.420;10.640;2024-02-16T12:41:44;3.25;;;1.27;;
40150;SDS011;25866;52.420;10.640;2024-02-16T12:44:11;2.35;;;1.38;;
40150;SDS011;25866;52.420;10.640;2024-02-16T12:46:37;4.95;;;1.83;;
40150;SDS011;25866;52.420;10.640;2024-02-16T12:49:04;6.00;;;2.20;;
40150;SDS011;25866;52.420;10.640;2024-02-16T12:51:30;3.08;;;1.83;;
40150;SDS011;25866;52.420;10.640;2024-02-16T12:53:55;2.53;;;1.60;;
40150;SDS011;25866;52.420;10.640;2024-02-16T12:56:21;5.32;;;1.90;;
40150;SDS011;25866;52.420;10.640;2024-02-16T12:58:47;7.68;;;1.58;;
40150;SDS011;25866;52.420;10.640;2024-02-16T13:01:13;3.88;;;1.75;;
40150;SDS011;25866;52.420;10.640;2024-02-16T13:03:39;2.78;;;1.70;;
40150;SDS011;25866;52.420;10.640;2024-02-16T13:06:05;3.15;;;1.50;;
40150;SDS011;25866;52.420;10.640;2024-02-16T13:08:31;3.35;;;1.40;;
40150;SDS011;25866;52.420;10.640;2024-02-16T13:10:57;4.57;;;1.85;;
40150;SDS011;25866;52.420;10.640;2024-02-16T13:13:23;3.55;;;1.60;;
40150;SDS011;25866;52.420;10.640;2024-02-16T13:15:49;6.45;;;1.80;;
40150;SDS011;25866;52.420;10.640;2024-02-16T13:18:16;3.55;;;1.60;;
40150;SDS011;25866;52.420;10.640;2024-02-16T13:20:45;5.97;;;1.92;;
40150;SDS011;25866;52.420;10.640;2024-02-16T13:23:12;8.00;;;2.35;;
40150;SDS011;25866;52.420;10.640;2024-02-16T13:25:38;5.57;;;2.13;;
40150;SDS011;25866;52.420;10.640;2024-02-16T13:28:03;2.47;;;1.80;;
40150;SDS011;25866;52.420;10.640;2024-02-16T13:30:30;3.55;;;1.80;;
40150;SDS011;25866;52.420;10.640;2024-02-16T13:32:58;4.65;;;2.10;;
40150;SDS011;25866;52.420;10.640;2024-02-16T13:35:24;5.82;;;1.77;;
40150;SDS011;25866;52.420;10.640;2024-02-16T13:37:51;4.63;;;1.80;;
40150;SDS011;25866;52.420;10.640;2024-02-16T13:40:17;3.88;;;1.73;;
40150;SDS011;25866;52.420;10.640;2024-02-16T13:42:43;3.50;;;1.67;;
40150;SDS011;25866;52.420;10.640;2024-02-16T13:45:10;3.15;;;1.60;;
40150;SDS011;25866;52.420;10.640;2024-02-16T13:47:36;4.93;;;2.10;;
40150;SDS011;25866;52.420;10.640;2024-02-16T13:50:05;4.05;;;1.70;;
40150;SDS011;25866;52.420;10.640;2024-02-16T13:52:31;2.83;;;1.75;;
40150;SDS011;25866;52.420;10.640;2024-02-16T13:54:57;5.30;;;2.00;;
40150;SDS011;25866;52.420;10.640;2024-02-16T13:57:24;3.33;;;1.88;;
40150;SDS011;25866;52.420;10.640;2024-02-16T13:59:49;5.20;;;1.80;;
40150;SDS011;25866;52.420;10.640;2024-02-16T14:02:15;6.63;;;1.75;;
40150;SDS011;25866;52.420;10.640;2024-02-16T14:04:41;4.85;;;1.70;;
40150;SDS011;25866;52.420;10.640;2024-02-16T14:07:07;2.88;;;1.70;;
40150;SDS011;25866;52.420;10.640;2024-02-16T14:09:32;5.13;;;1.80;;
40150;SDS011;25866;52.420;10.640;2024-02-16T14:11:58;2.50;;;1.83;;
40150;SDS011;25866;52.420;10.640;2024-02-16T14:14:25;6.53;;;1.83;;
40150;SDS011;25866;52.420;10.640;2024-02-16T14:16:51;4.15;;;1.80;;
40150;SDS011;25866;52.420;10.640;2024-02-16T14:19:17;4.05;;;1.80;;
40150;SDS011;25866;52.420;10.640;2024-02-16T14:21:43;4.82;;;1.88;;
40150;SDS011;25866;52.420;10.640;2024-02-16T14:24:09;6.45;;;2.00;;
40150;SDS011;25866;52.420;10.640;2024-02-16T14:26:36;5.35;;;2.22;;
40150;SDS011;25866;52.420;10.640;2024-02-16T14:29:02;5.75;;;1.92;;
40150;SDS011;25866;52.420;10.640;2024-02-16T14:31:29;6.63;;;2.28;;
40150;SDS011;25866;52.420;10.640;2024-02-16T14:33:55;6.65;;;2.22;;
40150;SDS011;25866;52.420;10.640;2024-02-16T14:36:21;5.47;;;2.22;;
40150;SDS011;25866;52.420;10.640;2024-02-16T14:38:47;6.50;;;2.25;;